createdAt,value
2019-03-29T00:01:12.420Z,98926.58
2019-03-29T00:03:40.858Z,98927.77
2019-03-29T00:06:09.309Z,98923.15
2019-03-29T00:08:37.709Z,98919.31
2019-03-29T00:11:06.168Z,98915.34
2019-03-29T00:13:34.564Z,98912.38
2019-03-29T00:16:03.021Z,98915.86
2019-03-29T00:18:31.458Z,98913.98
2019-03-29T00:20:59.928Z,98908.33
2019-03-29T00:23:28.357Z,98917.51
2019-03-29T00:25:56.818Z,98909.17
2019-03-29T00:28:25.247Z,98906.71
2019-03-29T00:30:53.717Z,98902.69
2019-03-29T00:33:22.169Z,98897.27
2019-03-29T00:35:50.737Z,98902.61
2019-03-29T00:38:19.212Z,98899.98
2019-03-29T00:40:47.645Z,98897.59
2019-03-29T00:43:16.113Z,98901.13
2019-03-29T00:45:45.173Z,98894.03
2019-03-29T00:48:14.146Z,98893.48
2019-03-29T00:50:42.600Z,98900.77
2019-03-29T00:53:11.049Z,98898.94
2019-03-29T00:55:39.555Z,98891.38
2019-03-29T00:58:07.989Z,98890.27
2019-03-29T01:00:36.472Z,98881.41
2019-03-29T01:03:04.921Z,98888.16
2019-03-29T01:05:33.364Z,98882.74
2019-03-29T01:08:07.640Z,98880.52
2019-03-29T01:10:31.926Z,98882.17
2019-03-29T01:13:00.381Z,98878.70
2019-03-29T01:15:28.821Z,98882.23
2019-03-29T01:17:57.250Z,98877.94
2019-03-29T01:20:25.711Z,98870.63
2019-03-29T01:22:54.152Z,98873.13
2019-03-29T01:25:22.616Z,98873.37
2019-03-29T01:27:51.062Z,98869.25
2019-03-29T01:30:19.515Z,98874.19
2019-03-29T01:32:47.936Z,98873.32
2019-03-29T01:35:16.368Z,98878.30
2019-03-29T01:37:45.375Z,98877.12
2019-03-29T01:40:14.655Z,98869.55
2019-03-29T01:42:43.071Z,98868.57
2019-03-29T01:45:11.556Z,98870.92
2019-03-29T01:47:39.999Z,98874.48
2019-03-29T01:50:08.565Z,98870.20
2019-03-29T01:52:37.047Z,98871.44
2019-03-29T01:55:05.588Z,98873.32
2019-03-29T01:57:34.091Z,98877.12
2019-03-29T02:00:02.629Z,98872.97
2019-03-29T02:02:31.126Z,98869.22
2019-03-29T02:05:00.221Z,98875.67
2019-03-29T02:07:29.368Z,98877.86
2019-03-29T02:09:57.849Z,98870.87
2019-03-29T02:12:26.288Z,98865.98
2019-03-29T02:14:54.860Z,98863.31
2019-03-29T02:17:23.377Z,98866.88
2019-03-29T02:19:51.852Z,98861.48
2019-03-29T02:22:20.322Z,98856.08
2019-03-29T02:24:49.312Z,98857.67
2019-03-29T02:27:18.458Z,98850.47
2019-03-29T02:29:46.912Z,98856.11
2019-03-29T02:32:15.373Z,98855.03
2019-03-29T02:34:44.144Z,98852.06
2019-03-29T02:37:12.734Z,98859.08
2019-03-29T02:39:41.158Z,98860.97
2019-03-29T02:42:09.593Z,98866.06
2019-03-29T02:44:38.010Z,98869.41
2019-03-29T02:47:06.487Z,98864.25
2019-03-29T02:49:34.962Z,98866.70
2019-03-29T02:52:03.607Z,98865.36
2019-03-29T02:54:32.027Z,98858.05
2019-03-29T02:57:00.503Z,98863.73
2019-03-29T02:59:29.043Z,98861.04
2019-03-29T03:01:57.474Z,98859.98
2019-03-29T03:04:25.916Z,98861.63
2019-03-29T03:06:54.370Z,98860.80
2019-03-29T03:09:22.817Z,98865.36
2019-03-29T03:11:51.286Z,98858.40
2019-03-29T03:14:19.741Z,98850.30
2019-03-29T03:16:48.183Z,98858.16
2019-03-29T03:19:16.608Z,98859.80
2019-03-29T03:21:45.073Z,98857.64
2019-03-29T03:24:13.569Z,98853.35
2019-03-29T03:26:42.119Z,98852.02
2019-03-29T03:29:10.581Z,98848.49
2019-03-29T03:31:39.033Z,98848.49
2019-03-29T03:34:07.488Z,98843.64
2019-03-29T03:36:35.967Z,98843.34
2019-03-29T03:39:05.466Z,98838.24
2019-03-29T03:41:33.884Z,98845.04
2019-03-29T03:44:02.321Z,98841.23
2019-03-29T03:46:30.780Z,98838.30
2019-03-29T03:48:59.192Z,98838.52
2019-03-29T03:51:27.658Z,98835.84
2019-03-29T03:53:56.080Z,98840.16
2019-03-29T03:56:24.532Z,98844.28
2019-03-29T03:58:52.951Z,98843.16
2019-03-29T04:01:21.378Z,98844.85
2019-03-29T04:03:49.837Z,98839.45
2019-03-29T04:06:18.267Z,98837.30
2019-03-29T04:08:46.679Z,98839.19
2019-03-29T04:11:15.121Z,98834.84
2019-03-29T04:13:43.542Z,98837.05
2019-03-29T04:16:12.000Z,98842.69
2019-03-29T04:18:40.427Z,98840.58
2019-03-29T04:21:08.875Z,98838.41
2019-03-29T04:26:04.320Z,98846.98
2019-03-29T04:28:32.755Z,98846.27
2019-03-29T04:31:01.204Z,98845.69
2019-03-29T04:33:29.677Z,98843.04
2019-03-29T04:35:58.221Z,98843.58
2019-03-29T04:38:26.648Z,98848.44
2019-03-29T04:40:55.138Z,98850.86
2019-03-29T04:43:23.602Z,98852.20
2019-03-29T04:45:52.051Z,98856.52
2019-03-29T04:48:20.490Z,98856.52
2019-03-29T04:53:15.911Z,98851.67
2019-03-29T04:55:44.340Z,98859.70
2019-03-29T04:58:12.743Z,98853.55
2019-03-29T05:00:41.312Z,98857.02
2019-03-29T05:05:36.764Z,98852.20
2019-03-29T05:08:05.180Z,98853.26
2019-03-29T05:10:33.618Z,98852.50
2019-03-29T05:13:02.068Z,98855.77
2019-03-29T05:15:30.519Z,98853.91
2019-03-29T05:17:58.930Z,98859.24
2019-03-29T05:20:27.401Z,98850.67
2019-03-29T05:22:55.905Z,98856.59
2019-03-29T05:25:24.408Z,98853.91
2019-03-29T05:27:52.957Z,98861.75
2019-03-29T05:30:21.360Z,98862.28
2019-03-29T05:32:49.837Z,98860.94
2019-03-29T05:35:18.292Z,98861.18
2019-03-29T05:37:46.785Z,98864.17
2019-03-29T05:40:15.249Z,98862.83
2019-03-29T05:42:43.729Z,98858.00
2019-03-29T05:45:12.280Z,98862.83
2019-03-29T05:47:40.715Z,98865.52
2019-03-29T05:50:09.182Z,98860.89
2019-03-29T05:52:37.671Z,98853.66
2019-03-29T05:55:06.165Z,98850.96
2019-03-29T05:57:34.592Z,98846.70
2019-03-29T06:00:05.379Z,98849.27
2019-03-29T06:02:33.858Z,98848.86
2019-03-29T06:05:02.281Z,98848.77
2019-03-29T06:07:30.769Z,98855.45
2019-03-29T06:09:59.284Z,98848.47
2019-03-29T06:12:27.805Z,98849.70
2019-03-29T06:14:56.454Z,98848.31
2019-03-29T06:17:24.873Z,98855.09
2019-03-29T06:19:53.321Z,98856.80
2019-03-29T06:22:21.748Z,98858.91
2019-03-29T06:24:50.337Z,98853.68
2019-03-29T06:27:18.752Z,98845.17
2019-03-29T06:29:47.176Z,98846.81
2019-03-29T06:32:15.571Z,98844.69
2019-03-29T06:34:43.986Z,98848.97
2019-03-29T06:37:12.431Z,98848.09
2019-03-29T06:39:40.887Z,98846.92
2019-03-29T06:42:09.293Z,98844.69
2019-03-29T06:44:37.701Z,98838.46
2019-03-29T06:47:06.214Z,98838.16
2019-03-29T06:49:34.725Z,98839.22
2019-03-29T06:52:03.172Z,98836.47
2019-03-29T06:54:31.576Z,98837.65
2019-03-29T06:57:00.032Z,98837.92
2019-03-29T06:59:28.469Z,98836.52
2019-03-29T07:01:56.875Z,98837.27
2019-03-29T07:04:25.268Z,98839.45
2019-03-29T07:06:53.705Z,98838.55
2019-03-29T07:09:22.204Z,98833.79
2019-03-29T07:11:50.611Z,98830.63
2019-03-29T07:14:18.995Z,98830.61
2019-03-29T07:16:47.427Z,98831.55
2019-03-29T07:19:15.811Z,98824.93
2019-03-29T07:21:44.222Z,98833.48
2019-03-29T07:24:12.619Z,98834.50
2019-03-29T07:26:41.023Z,98832.40
2019-03-29T07:29:09.431Z,98837.08
2019-03-29T07:31:37.833Z,98836.53
2019-03-29T07:34:06.284Z,98837.20
2019-03-29T07:36:34.687Z,98835.28
2019-03-29T07:39:03.095Z,98837.38
2019-03-29T07:41:32.617Z,98835.34
2019-03-29T07:44:01.166Z,98839.39
2019-03-29T07:46:29.676Z,98837.75
2019-03-29T07:48:58.077Z,98831.23
2019-03-29T07:51:26.480Z,98835.94
2019-03-29T07:53:54.934Z,98835.94
2019-03-29T07:56:23.380Z,98831.84
2019-03-29T07:58:51.838Z,98830.09
2019-03-29T08:01:20.264Z,98830.94
2019-03-29T08:03:51.229Z,98827.84
2019-03-29T08:06:19.415Z,98818.71
2019-03-29T08:08:47.857Z,98820.79
2019-03-29T08:11:26.032Z,98819.77
2019-03-29T08:13:46.291Z,98819.13
2019-03-29T08:16:14.713Z,98819.30
2019-03-29T08:18:43.116Z,98816.23
2019-03-29T08:21:11.540Z,98820.55
2019-03-29T08:23:40.004Z,98825.95
2019-03-29T08:26:08.404Z,98816.53
2019-03-29T08:28:36.801Z,98820.48
2019-03-29T08:31:05.325Z,98815.83
2019-03-29T08:33:33.743Z,98824.38
2019-03-29T08:36:02.153Z,98820.26
2019-03-29T08:38:30.554Z,98818.91
2019-03-29T08:40:59.087Z,98813.81
2019-03-29T08:43:27.631Z,98815.42
2019-03-29T08:45:57.576Z,98807.56
2019-03-29T08:48:26.479Z,98810.73
2019-03-29T08:50:55.180Z,98800.53
2019-03-29T08:53:27.206Z,98811.34
2019-03-29T08:55:53.889Z,98801.98
2019-03-29T08:58:22.296Z,98803.93
2019-03-29T09:00:50.780Z,98799.44
2019-03-29T09:03:19.207Z,98805.22
2019-03-29T09:05:47.616Z,98803.56
2019-03-29T09:08:16.025Z,98809.17
2019-03-29T09:10:44.420Z,98808.03
2019-03-29T09:13:12.925Z,98807.05
2019-03-29T09:15:41.316Z,98799.69
2019-03-29T09:18:09.858Z,98805.09
2019-03-29T09:20:38.257Z,98797.11
2019-03-29T09:23:10.013Z,98794.65
2019-03-29T09:25:40.160Z,98793.08
2019-03-29T09:28:06.790Z,98791.59
2019-03-29T09:30:35.204Z,98790.17
2019-03-29T09:33:03.632Z,98794.97
2019-03-29T09:35:32.028Z,98781.08
2019-03-29T09:38:00.432Z,98783.98
2019-03-29T09:40:28.843Z,98777.83
2019-03-29T09:43:07.030Z,98780.97
2019-03-29T09:45:27.479Z,98772.80
2019-03-29T09:47:56.168Z,98782.82
2019-03-29T09:50:24.685Z,98769.30
2019-03-29T09:52:53.080Z,98772.01
2019-03-29T09:55:21.483Z,98769.23
2019-03-29T09:57:49.991Z,98764.05
2019-03-29T10:00:23.040Z,98769.95
2019-03-29T10:02:48.459Z,98771.49
2019-03-29T10:05:19.837Z,98762.64
2019-03-29T10:07:46.979Z,98751.16
2019-03-29T10:10:15.380Z,98753.81
2019-03-29T10:12:44.213Z,98759.03
2019-03-29T10:15:12.613Z,98758.27
2019-03-29T10:17:41.007Z,98755.75
2019-03-29T10:20:09.413Z,98750.84
2019-03-29T10:22:37.905Z,98747.69
2019-03-29T10:25:18.324Z,98747.69
2019-03-29T10:27:36.469Z,98742.58
2019-03-29T10:30:05.232Z,98748.56
2019-03-29T10:32:33.709Z,98737.13
2019-03-29T10:35:02.171Z,98733.73
2019-03-29T10:37:30.620Z,98728.52
2019-03-29T10:39:59.134Z,98734.59
2019-03-29T10:42:27.588Z,98727.90
2019-03-29T10:44:56.023Z,98724.70
2019-03-29T10:47:42.049Z,98727.05
2019-03-29T10:49:54.884Z,98727.23
2019-03-29T10:52:23.364Z,98726.05
2019-03-29T10:54:51.928Z,98719.78
2019-03-29T10:57:20.387Z,98716.53
2019-03-29T10:59:48.861Z,98709.04
2019-03-29T11:02:17.307Z,98714.30
2019-03-29T11:04:45.873Z,98715.73
2019-03-29T11:07:14.445Z,98716.77
2019-03-29T11:09:43.077Z,98719.97
2019-03-29T11:12:11.634Z,98711.79
2019-03-29T11:14:40.210Z,98719.70
2019-03-29T11:17:08.682Z,98715.88
2019-03-29T11:19:37.166Z,98717.62
2019-03-29T11:22:05.671Z,98712.05
2019-03-29T11:24:34.168Z,98714.34
2019-03-29T11:27:02.650Z,98705.92
2019-03-29T11:29:31.112Z,98709.04
2019-03-29T11:31:59.573Z,98703.21
2019-03-29T11:34:28.061Z,98703.25
2019-03-29T11:36:56.552Z,98705.03
2019-03-29T11:39:27.473Z,98706.88
2019-03-29T11:41:55.116Z,98689.50
2019-03-29T11:44:23.551Z,98698.00
2019-03-29T11:46:52.040Z,98692.90
2019-03-29T11:49:20.532Z,98537.01
2019-03-29T11:51:48.980Z,98685.56
2019-03-29T11:54:17.534Z,98683.67
2019-03-29T11:56:47.803Z,98687.41
2019-03-29T11:59:16.426Z,98682.55
2019-03-29T12:01:44.951Z,98681.20
2019-03-29T12:04:13.432Z,98672.00
2019-03-29T12:06:41.926Z,98675.74
2019-03-29T12:09:10.336Z,98668.80
2019-03-29T12:11:38.797Z,98669.61
2019-03-29T12:14:07.294Z,98670.03
2019-03-29T12:16:35.872Z,98666.20
2019-03-29T12:19:04.396Z,98665.16
2019-03-29T12:21:32.928Z,98664.30
2019-03-29T12:24:01.445Z,98656.12
2019-03-29T12:26:29.895Z,98663.81
2019-03-29T12:28:58.365Z,98663.73
2019-03-29T12:31:26.981Z,98657.59
2019-03-29T12:33:55.485Z,98671.61
2019-03-29T12:36:24.032Z,98653.48
2019-03-29T12:38:52.623Z,98649.44
2019-03-29T12:41:21.181Z,98645.06
2019-03-29T12:43:55.600Z,98655.62
2019-03-29T12:46:19.852Z,98648.86
2019-03-29T12:48:50.291Z,98649.17
2019-03-29T12:51:18.479Z,98647.77
2019-03-29T12:53:47.008Z,98638.30
2019-03-29T12:56:15.516Z,98637.99
2019-03-29T12:58:44.055Z,98633.05
2019-03-29T13:01:12.731Z,98639.27
2019-03-29T13:03:41.300Z,98634.88
2019-03-29T13:06:09.808Z,98624.00
2019-03-29T13:08:38.331Z,98624.89
2019-03-29T13:11:06.950Z,98620.52
2019-03-29T13:13:35.491Z,98618.67
2019-03-29T13:16:03.988Z,98613.94
2019-03-29T13:18:32.630Z,98615.88
2019-03-29T13:21:01.076Z,98605.64
2019-03-29T13:23:29.569Z,98604.75
2019-03-29T13:25:58.102Z,98594.02
2019-03-29T13:28:26.562Z,98597.38
2019-03-29T13:30:55.051Z,98587.81
2019-03-29T13:33:23.576Z,98581.41
2019-03-29T13:35:52.055Z,98574.46
2019-03-29T13:38:20.816Z,98568.51
2019-03-29T13:40:49.554Z,98574.28
2019-03-29T13:43:18.070Z,98567.52
2019-03-29T13:45:46.539Z,98563.64
2019-03-29T13:48:15.014Z,98551.38
2019-03-29T13:50:43.455Z,98549.65
2019-03-29T13:53:11.958Z,98551.32
2019-03-29T13:55:40.622Z,98540.87
2019-03-29T13:58:09.066Z,98552.41
2019-03-29T14:00:37.549Z,98547.41
2019-03-29T14:03:05.936Z,98545.91
2019-03-29T14:05:34.338Z,98544.20
2019-03-29T14:08:02.791Z,98545.33
2019-03-29T14:10:31.261Z,98537.38
2019-03-29T14:12:59.652Z,98541.77
2019-03-29T14:15:28.283Z,98542.22
2019-03-29T14:17:56.792Z,98535.55
2019-03-29T14:20:30.400Z,98523.54
2019-03-29T14:22:58.860Z,98529.41
2019-03-29T14:25:27.322Z,98520.89
2019-03-29T14:27:55.864Z,98519.71
2019-03-29T14:30:24.343Z,98523.05
2019-03-29T14:32:52.825Z,98521.84
2019-03-29T14:35:21.336Z,98515.34
2019-03-29T14:37:49.774Z,98507.99
2019-03-29T14:40:18.259Z,98517.95
2019-03-29T14:42:46.713Z,98511.36
2019-03-29T14:45:15.170Z,98506.91
2019-03-29T14:47:44.046Z,98510.78
2019-03-29T14:50:12.597Z,98507.13
2019-03-29T14:52:41.022Z,98507.36
2019-03-29T14:55:09.700Z,98505.92
2019-03-29T14:57:38.145Z,98501.17
2019-03-29T15:00:07.002Z,98491.62
2019-03-29T15:02:35.440Z,98494.73
2019-03-29T15:05:04.275Z,98492.08
2019-03-29T15:07:32.781Z,98491.44
2019-03-29T15:10:01.243Z,98490.89
2019-03-29T15:12:29.726Z,98495.05
2019-03-29T15:15:06.061Z,98484.27
2019-03-29T15:17:28.240Z,98479.04
2019-03-29T15:19:56.762Z,98478.81
2019-03-29T15:22:25.342Z,98481.97
2019-03-29T15:24:53.882Z,98475.38
2019-03-29T15:27:22.328Z,98479.04
2019-03-29T15:29:50.781Z,98475.29
2019-03-29T15:32:19.240Z,98474.27
2019-03-29T15:34:47.746Z,98470.03
2019-03-29T15:37:16.245Z,98469.17
2019-03-29T15:39:44.745Z,98469.34
2019-03-29T15:42:13.213Z,98458.42
2019-03-29T15:44:41.736Z,98452.84
2019-03-29T15:47:10.200Z,98457.80
2019-03-29T15:49:38.709Z,98460.56
2019-03-29T15:52:07.354Z,98460.41
2019-03-29T15:54:35.810Z,98456.58
2019-03-29T15:57:04.407Z,98450.53
2019-03-29T15:59:32.901Z,98447.45
2019-03-29T16:02:01.365Z,98450.45
2019-03-29T16:04:29.905Z,98445.85
2019-03-29T16:06:58.375Z,98448.55
2019-03-29T16:09:26.843Z,98449.27
2019-03-29T16:11:56.494Z,98450.45
2019-03-29T16:14:25.090Z,98446.72
2019-03-29T16:16:53.592Z,98444.81
2019-03-29T16:19:22.078Z,98438.91
2019-03-29T16:21:50.576Z,98439.95
2019-03-29T16:24:19.029Z,98442.58
2019-03-29T16:26:47.515Z,98440.84
2019-03-29T16:29:16.079Z,98432.47
2019-03-29T16:31:44.585Z,98436.08
2019-03-29T16:34:13.048Z,98432.39
2019-03-29T16:36:41.527Z,98437.03
2019-03-29T16:39:10.133Z,98434.87
2019-03-29T16:41:38.580Z,98425.41
2019-03-29T16:44:06.998Z,98438.75
2019-03-29T16:46:35.496Z,98439.11
2019-03-29T16:49:03.924Z,98442.03
2019-03-29T16:51:32.336Z,98438.61
2019-03-29T16:54:00.744Z,98435.50
2019-03-29T16:56:29.140Z,98434.67
2019-03-29T16:58:57.545Z,98436.92
2019-03-29T17:01:25.973Z,98437.78
2019-03-29T17:03:54.385Z,98437.92
2019-03-29T17:06:22.788Z,98434.98
2019-03-29T17:08:51.202Z,98432.52
2019-03-29T17:11:19.715Z,98431.16
2019-03-29T17:13:48.150Z,98433.09
2019-03-29T17:16:29.403Z,98433.41
2019-03-29T17:18:46.606Z,98429.35
2019-03-29T17:21:15.004Z,98431.56
2019-03-29T17:23:43.398Z,98428.78
2019-03-29T17:26:11.900Z,98429.90
2019-03-29T17:28:40.335Z,98429.90
2019-03-29T17:31:09.802Z,98431.66
2019-03-29T17:33:38.201Z,98433.23
2019-03-29T17:36:06.624Z,98434.36
2019-03-29T17:38:35.077Z,98438.23
2019-03-29T17:41:03.506Z,98432.02
2019-03-29T17:43:31.995Z,98436.97
2019-03-29T17:46:00.392Z,98442.06
2019-03-29T17:48:28.787Z,98438.41
2019-03-29T17:50:57.318Z,98444.67
2019-03-29T17:53:25.716Z,98444.67
2019-03-29T17:55:54.160Z,98445.22
2019-03-29T17:58:22.560Z,98443.55
2019-03-29T18:00:50.969Z,98439.59
2019-03-29T18:03:19.372Z,98451.44
2019-03-29T18:05:47.830Z,98451.13
2019-03-29T18:08:16.273Z,98451.92
2019-03-29T18:10:44.659Z,98455.72
2019-03-29T18:13:13.068Z,98457.88
2019-03-29T18:15:41.583Z,98459.05
2019-03-29T18:18:12.955Z,98467.16
2019-03-29T18:20:40.151Z,98464.86
2019-03-29T18:23:08.544Z,98465.17
2019-03-29T18:25:36.935Z,98463.33
2019-03-29T18:28:05.432Z,98463.09
2019-03-29T18:30:35.058Z,98465.08
2019-03-29T18:33:03.464Z,98463.18
2019-03-29T18:35:31.882Z,98461.83
2019-03-29T18:38:00.357Z,98467.23
2019-03-29T18:40:28.903Z,98467.55
2019-03-29T18:42:57.400Z,98467.86
2019-03-29T18:45:25.873Z,98467.14
2019-03-29T18:47:54.264Z,98465.21
2019-03-29T18:50:22.862Z,98472.28
2019-03-29T18:52:51.380Z,98470.38
2019-03-29T18:55:19.833Z,98473.40
2019-03-29T18:57:48.281Z,98469.34
2019-03-29T19:00:18.437Z,98473.94
2019-03-29T19:02:47.301Z,98469.16
2019-03-29T19:05:23.528Z,98475.61
2019-03-29T19:07:52.116Z,98461.06
2019-03-29T19:10:20.664Z,98468.54
2019-03-29T19:12:49.090Z,98470.47
2019-03-29T19:15:17.539Z,98469.34
2019-03-29T19:17:45.952Z,98469.16
2019-03-29T19:20:26.751Z,98472.44
2019-03-29T19:22:44.526Z,98468.63
2019-03-29T19:25:12.909Z,98472.18
2019-03-29T19:27:41.340Z,98471.95
2019-03-29T19:30:10.312Z,98471.80
2019-03-29T19:32:38.721Z,98476.08
2019-03-29T19:35:07.157Z,98474.96
2019-03-29T19:37:35.607Z,98466.63
2019-03-29T19:40:04.218Z,98467.98
2019-03-29T19:42:32.619Z,98475.27
2019-03-29T19:45:01.020Z,98464.78
2019-03-29T19:47:29.431Z,98461.30
2019-03-29T19:49:57.856Z,98460.31
2019-03-29T19:52:26.292Z,98465.66
2019-03-29T19:54:54.775Z,98463.59
2019-03-29T19:57:23.175Z,98464.94
2019-03-29T19:59:51.811Z,98466.03
2019-03-29T20:02:20.306Z,98461.97
2019-03-29T20:04:48.909Z,98467.42
2019-03-29T20:07:20.297Z,98460.44
2019-03-29T20:09:47.431Z,98464.49
2019-03-29T20:12:15.810Z,98462.88
2019-03-29T20:14:44.269Z,98466.70
2019-03-29T20:17:26.717Z,98469.48
2019-03-29T20:19:42.752Z,98459.45
2019-03-29T20:22:11.254Z,98460.34
2019-03-29T20:24:39.732Z,98459.22
2019-03-29T20:27:08.141Z,98457.63
2019-03-29T20:29:36.548Z,98458.18
2019-03-29T20:32:05.049Z,98453.09
2019-03-29T20:34:33.472Z,98453.01
2019-03-29T20:39:23.281Z,98447.87
2019-03-29T20:41:51.874Z,98446.10
2019-03-29T20:44:23.459Z,98449.27
2019-03-29T20:46:51.905Z,98447.45
2019-03-29T20:49:20.359Z,98444.48
2019-03-29T20:51:48.857Z,98439.02
2019-03-29T20:54:17.326Z,98451.02
2019-03-29T20:56:45.765Z,98442.67
2019-03-29T20:59:14.229Z,98439.25
2019-03-29T21:01:42.718Z,98436.86
2019-03-29T21:04:11.196Z,98438.75
2019-03-29T21:06:39.623Z,98441.22
2019-03-29T21:09:08.604Z,98445.58
2019-03-29T21:11:37.037Z,98440.48
2019-03-29T21:14:05.474Z,98440.26
2019-03-29T21:16:33.916Z,98440.98
2019-03-29T21:19:02.438Z,98441.84
2019-03-29T21:21:30.863Z,98441.11
2019-03-29T21:23:59.344Z,98434.86
2019-03-29T21:26:27.789Z,98445.39
2019-03-29T21:28:56.232Z,98433.09
2019-03-29T21:31:24.661Z,98433.86
2019-03-29T21:33:53.113Z,98433.32
2019-03-29T21:36:21.605Z,98423.64
2019-03-29T21:38:50.035Z,98421.79
2019-03-29T21:41:18.492Z,98424.56
2019-03-29T21:43:46.916Z,98426.70
2019-03-29T21:46:15.396Z,98429.16
2019-03-29T21:48:43.834Z,98432.41
2019-03-29T21:51:12.288Z,98419.22
2019-03-29T21:53:43.655Z,98419.48
2019-03-29T21:56:10.857Z,98424.56
2019-03-29T21:58:39.310Z,98422.23
2019-03-29T22:01:07.720Z,98422.80
2019-03-29T22:03:36.183Z,98419.84
2019-03-29T22:06:04.639Z,98427.20
2019-03-29T22:08:33.099Z,98425.63
2019-03-29T22:11:01.552Z,98418.33
2019-03-29T22:13:30.021Z,98420.23
2019-03-29T22:15:58.476Z,98409.23
2019-03-29T22:18:37.233Z,98410.44
2019-03-29T22:20:57.029Z,98408.20
2019-03-29T22:23:25.475Z,98410.05
2019-03-29T22:25:54.049Z,98402.88
2019-03-29T22:28:22.486Z,98403.38
2019-03-29T22:30:50.942Z,98399.33
2019-03-29T22:33:19.385Z,98406.61
2019-03-29T22:35:47.854Z,98392.97
2019-03-29T22:38:16.304Z,98386.76
2019-03-29T22:40:44.777Z,98388.41
2019-03-29T22:43:13.220Z,98388.96
2019-03-29T22:45:41.658Z,98386.57
2019-03-29T22:48:10.084Z,98387.06
2019-03-29T22:50:38.566Z,98389.84
2019-03-29T22:53:07.002Z,98385.61
2019-03-29T22:55:35.475Z,98380.70
2019-03-29T22:58:03.903Z,98383.95
2019-03-29T23:03:27.035Z,98379.67
2019-03-29T23:06:14.298Z,98371.00
2019-03-29T23:08:42.773Z,98371.80
2019-03-29T23:11:30.052Z,98376.39
2019-03-29T23:13:58.513Z,98363.20
2019-03-29T23:16:30.168Z,98362.48
2019-03-29T23:21:30.713Z,98363.05
2019-03-29T23:23:59.227Z,98363.28
2019-03-29T23:26:27.634Z,98361.70
2019-03-29T23:28:56.155Z,98360.09
2019-03-29T23:31:24.638Z,98360.40
2019-03-29T23:33:53.042Z,98359.63
2019-03-29T23:36:21.517Z,98362.33
2019-03-29T23:38:49.945Z,98361.52
2019-03-29T23:41:18.402Z,98357.23
2019-03-29T23:43:47.228Z,98351.00
2019-03-29T23:46:16.948Z,98346.45
2019-03-29T23:48:45.387Z,98347.50
2019-03-29T23:51:13.797Z,98345.42
2019-03-29T23:53:42.261Z,98341.14
2019-03-29T23:56:10.693Z,98334.31
2019-03-29T23:58:39.132Z,98340.33
